Time;durP1;ratioP1;P1;durP2;ratioP2;P2;SDS_P1;SDS_P2;PMS_P1;PMS_P2;Temp;Humidity;BMP_temperature;BMP_pressure;BME280_temperature;BME280_humidity;BME280_pressure;Samples;Min_cycle;Max_cycle;Signal;HPM_P1;HPM_P2
2021/07/09 00:03:10;;;;;;;3.83;2.00;;;;;;;16.87;100.00;98917.56;4833541;29;103007;-78
2021/07/09 00:05:38;;;;;;;3.10;1.90;;;;;;;16.98;100.00;98930.72;4812445;29;106179;-79
2021/07/09 00:08:08;;;;;;;4.28;2.05;;;;;;;17.01;100.00;98925.09;4825066;29;106343;-79
2021/07/09 00:10:36;;;;;;;2.00;1.90;;;;;;;17.00;100.00;98939.41;4829045;29;103012;-79
2021/07/09 00:13:05;;;;;;;2.80;2.47;;;;;;;17.04;100.00;98938.16;4837005;29;102929;-79
2021/07/09 00:15:35;;;;;;;3.50;2.33;;;;;;;17.00;100.00;98944.75;4812731;29;103867;-79
2021/07/09 00:18:03;;;;;;;3.53;1.70;;;;;;;17.09;100.00;98946.56;4819537;29;103429;-79
2021/07/09 00:20:31;;;;;;;4.95;1.98;;;;;;;17.16;100.00;98951.16;4829635;29;102968;-79
2021/07/09 00:22:59;;;;;;;3.20;2.58;;;;;;;17.05;100.00;98947.81;4829669;29;103001;-78
2021/07/09 00:25:29;;;;;;;2.58;2.35;;;;;;;17.14;100.00;98947.81;4828687;29;103321;-78
2021/07/09 00:27:57;;;;;;;5.30;1.80;;;;;;;17.19;100.00;98955.34;4828337;29;103718;-79
2021/07/09 00:30:25;;;;;;;4.10;1.88;;;;;;;17.26;100.00;98951.94;4829635;29;102976;-78
2021/07/09 00:32:53;;;;;;;3.45;2.25;;;;;;;17.22;100.00;98957.75;4843012;29;102895;-79
2021/07/09 00:35:21;;;;;;;4.65;2.28;;;;;;;17.28;100.00;98959.81;4838124;29;103448;-78
2021/07/09 00:37:49;;;;;;;2.45;2.03;;;;;;;17.26;100.00;98959.16;4831660;29;103779;-79
2021/07/09 00:40:19;;;;;;;3.28;2.28;;;;;;;17.19;100.00;98958.88;4814542;29;103131;-79
2021/07/09 00:42:48;;;;;;;3.58;2.58;;;;;;;17.20;100.00;98962.41;4812204;29;103109;-78
2021/07/09 00:45:17;;;;;;;2.08;1.90;;;;;;;17.31;100.00;98954.19;4839066;29;103963;-78
2021/07/09 00:47:47;;;;;;;2.90;2.15;;;;;;;17.27;100.00;98958.97;4835677;29;103891;-79
2021/07/09 00:50:17;;;;;;;3.70;2.95;;;;;;;17.08;100.00;98950.19;4828471;29;102831;-78
2021/07/09 00:52:46;;;;;;;4.03;2.50;;;;;;;17.06;100.00;98945.03;4833941;29;104272;-78
2021/07/09 00:55:15;;;;;;;2.10;1.95;;;;;;;17.04;100.00;98946.97;4834478;29;103937;-79
2021/07/09 00:57:46;;;;;;;3.83;2.30;;;;;;;17.03;100.00;98950.66;4820579;29;103712;-78
2021/07/09 01:00:18;;;;;;;3.33;2.20;;;;;;;17.03;100.00;98939.97;4830007;29;103829;-78
2021/07/09 01:02:47;;;;;;;2.67;2.40;;;;;;;16.97;100.00;98940.56;4828881;29;103500;-79
2021/07/09 01:05:17;;;;;;;2.47;2.10;;;;;;;16.96;100.00;98941.53;4828311;29;103856;-78
2021/07/09 01:07:46;;;;;;;2.92;2.05;;;;;;;17.04;100.00;98948.81;4827498;29;103859;-79
2021/07/09 01:10:16;;;;;;;2.33;1.92;;;;;;;16.99;100.00;98943.91;4836520;29;103378;-79
2021/07/09 01:12:46;;;;;;;4.00;2.63;;;;;;;16.90;100.00;98943.94;4816690;29;103069;-78
2021/07/09 01:15:17;;;;;;;2.05;1.92;;;;;;;16.87;100.00;98939.72;4829834;29;105124;-79
2021/07/09 01:17:46;;;;;;;3.25;1.88;;;;;;;16.93;100.00;98940.97;4828733;29;103323;-79
2021/07/09 01:20:17;;;;;;;7.85;2.30;;;;;;;16.91;100.00;98940.28;4828113;29;103243;-78
2021/07/09 01:22:47;;;;;;;2.90;2.42;;;;;;;16.77;100.00;98944.25;4829042;29;103224;-79
2021/07/09 01:25:19;;;;;;;5.00;2.70;;;;;;;16.68;100.00;98940.63;4827523;29;103944;-79
2021/07/09 01:27:50;;;;;;;3.30;2.30;;;;;;;16.55;100.00;98933.91;4816839;29;103703;-79
2021/07/09 01:30:21;;;;;;;2.95;2.05;;;;;;;16.72;100.00;98936.69;4829071;29;102828;-79
2021/07/09 01:32:51;;;;;;;3.13;2.35;;;;;;;16.79;100.00;98931.59;4828538;29;103182;-79
2021/07/09 01:35:20;;;;;;;3.33;2.17;;;;;;;16.77;100.00;98929.09;4828516;29;105006;-79
2021/07/09 01:37:55;;;;;;;2.58;2.38;;;;;;;16.69;100.00;98920.97;4827491;29;104881;-79
2021/07/09 01:40:25;;;;;;;3.85;2.85;;;;;;;16.67;100.00;98933.59;4829062;29;103280;-80
2021/07/09 01:42:54;;;;;;;3.78;2.75;;;;;;;16.67;100.00;98922.91;4829176;29;102855;-78
2021/07/09 01:45:23;;;;;;;2.90;2.50;;;;;;;16.72;100.00;98928.69;4828369;29;104333;-78
2021/07/09 01:47:53;;;;;;;3.60;2.88;;;;;;;16.68;100.00;98929.94;4838248;29;103779;-78
2021/07/09 01:50:22;;;;;;;4.45;3.33;;;;;;;16.68;100.00;98931.75;4827440;29;103177;-78
2021/07/09 01:52:50;;;;;;;3.17;2.88;;;;;;;16.74;100.00;98936.53;4829972;29;103156;-78
2021/07/09 01:55:19;;;;;;;4.00;3.20;;;;;;;16.68;100.00;98934.44;4828584;29;104094;-78
2021/07/09 01:57:48;;;;;;;4.30;3.00;;;;;;;16.74;100.00;98926.72;4830118;29;103686;-78
2021/07/09 02:00:18;;;;;;;2.67;2.47;;;;;;;16.60;100.00;98924.50;4835611;29;103123;-78
2021/07/09 02:02:47;;;;;;;3.40;3.10;;;;;;;16.55;100.00;98920.56;4828376;29;103501;-78
2021/07/09 02:05:17;;;;;;;4.95;2.90;;;;;;;16.55;100.00;98926.75;4811068;29;104229;-78
2021/07/09 02:07:47;;;;;;;3.03;2.55;;;;;;;16.59;100.00;98920.13;4820604;29;103444;-78
2021/07/09 02:10:18;;;;;;;2.55;2.35;;;;;;;16.66;100.00;98920.41;4828209;29;103012;-78
2021/07/09 02:12:50;;;;;;;4.05;2.92;;;;;;;16.49;100.00;98915.78;4828012;29;102982;-79
2021/07/09 02:15:18;;;;;;;3.30;3.00;;;;;;;16.45;100.00;98917.88;4825813;29;105046;-77
2021/07/09 02:17:46;;;;;;;6.57;3.20;;;;;;;16.58;100.00;98921.13;4827337;29;103140;-77
2021/07/09 02:20:18;;;;;;;3.20;2.50;;;;;;;16.59;100.00;98924.66;4828131;29;103187;-77
2021/07/09 02:22:47;;;;;;;3.08;2.60;;;;;;;16.58;100.00;98926.47;4828220;29;103098;-77
2021/07/09 02:25:16;;;;;;;4.25;2.95;;;;;;;16.42;100.00;98928.81;4827634;29;103564;-77
2021/07/09 02:27:47;;;;;;;5.40;2.88;;;;;;;16.49;100.00;98929.09;4827991;29;103693;-77
2021/07/09 02:30:17;;;;;;;3.65;2.65;;;;;;;16.47;100.00;98931.06;4828046;29;103200;-77
2021/07/09 02:32:47;;;;;;;3.33;2.53;;;;;;;16.51;100.00;98932.47;4828474;29;103608;-78
2021/07/09 02:35:17;;;;;;;3.83;2.67;;;;;;;16.57;100.00;98939.94;4829259;29;104040;-78
2021/07/09 02:37:46;;;;;;;3.95;3.25;;;;;;;16.60;100.00;98942.31;4826408;29;103844;-77
2021/07/09 02:40:17;;;;;;;2.55;2.35;;;;;;;16.60;100.00;98939.66;4813325;29;103306;-78
2021/07/09 02:42:46;;;;;;;3.55;2.60;;;;;;;16.67;100.00;98938.91;4823788;29;103114;-78
2021/07/09 02:45:17;;;;;;;3.17;2.92;;;;;;;16.60;100.00;98932.50;4827273;29;103324;-77
2021/07/09 02:47:46;;;;;;;5.22;3.50;;;;;;;16.44;100.00;98934.88;4834605;29;104887;-78
2021/07/09 02:50:16;;;;;;;5.85;3.80;;;;;;;16.44;100.00;98942.03;4818040;29;103875;-78
2021/07/09 02:52:44;;;;;;;4.93;3.08;;;;;;;16.45;100.00;98943.72;4811831;29;103313;-78
2021/07/09 02:55:13;;;;;;;2.70;2.50;;;;;;;16.50;100.00;98946.78;4810370;29;103878;-78
2021/07/09 02:57:42;;;;;;;2.83;2.63;;;;;;;16.60;100.00;98948.50;4814379;29;105001;-78
2021/07/09 03:00:12;;;;;;;3.50;3.15;;;;;;;16.46;100.00;98943.56;4815664;29;103084;-77
2021/07/09 03:02:42;;;;;;;5.60;3.17;;;;;;;16.47;100.00;98936.41;4826560;29;104119;-78
2021/07/09 03:05:11;;;;;;;3.90;2.75;;;;;;;16.55;100.00;98934.75;4808905;29;104421;-77
2021/07/09 03:07:40;;;;;;;5.10;2.63;;;;;;;16.65;100.00;98929.38;4809101;29;103710;-78
2021/07/09 03:10:10;;;;;;;2.92;2.47;;;;;;;16.60;100.00;98935.16;4828690;29;103202;-77
2021/07/09 03:12:39;;;;;;;2.08;1.98;;;;;;;16.63;100.00;98942.03;4831396;29;103057;-79
2021/07/09 03:15:10;;;;;;;3.63;2.75;;;;;;;16.66;100.00;98936.41;4829417;29;106479;-78
2021/07/09 03:17:39;;;;;;;4.35;3.47;;;;;;;16.56;100.00;98941.75;4812595;29;103362;-79
2021/07/09 03:20:11;;;;;;;5.68;3.40;;;;;;;16.59;100.00;98949.47;4830052;29;103281;-78
2021/07/09 03:22:39;;;;;;;3.20;2.90;;;;;;;16.57;100.00;98942.59;4831377;29;103153;-78
2021/07/09 03:25:09;;;;;;;4.57;3.30;;;;;;;16.63;100.00;98944.69;4830863;29;104556;-82
2021/07/09 03:27:38;;;;;;;5.45;3.47;;;;;;;16.59;100.00;98946.81;4813629;29;106968;-81
2021/07/09 03:30:07;;;;;;;3.60;3.28;;;;;;;16.62;100.00;98946.50;4829975;29;102953;-81
2021/07/09 03:32:35;;;;;;;6.05;3.45;;;;;;;16.54;100.00;98949.06;4838357;29;103247;-73
2021/07/09 03:35:04;;;;;;;4.03;2.92;;;;;;;16.57;100.00;98947.94;4828722;29;104010;-72
2021/07/09 03:37:33;;;;;;;4.82;3.10;;;;;;;16.56;100.00;98946.28;4819427;29;104247;-72
2021/07/09 03:40:01;;;;;;;4.90;3.88;;;;;;;16.38;100.00;98948.75;4826107;29;103232;-73
2021/07/09 03:42:29;;;;;;;2.88;2.67;;;;;;;16.48;100.00;98949.59;4826301;29;103379;-83
2021/07/09 03:44:57;;;;;;;4.63;3.50;;;;;;;16.44;100.00;98948.22;4825749;29;103379;-85
2021/07/09 03:47:25;;;;;;;5.60;3.78;;;;;;;16.49;100.00;98950.44;4840808;29;104151;-82
2021/07/09 03:49:53;;;;;;;5.13;3.80;;;;;;;16.46;100.00;98946.22;4844495;29;103812;-84
2021/07/09 03:52:21;;;;;;;3.97;3.13;;;;;;;16.47;100.00;98958.59;4841857;29;103193;-85
2021/07/09 03:54:50;;;;;;;5.47;3.70;;;;;;;16.42;100.00;98955.47;4827256;29;103944;-86
2021/07/09 03:57:18;;;;;;;4.10;3.70;;;;;;;16.53;100.00;98944.69;4828001;29;103626;-82
2021/07/09 03:59:47;;;;;;;4.45;3.30;;;;;;;16.52;100.00;98961.66;4828794;29;103131;-86
2021/07/09 04:02:15;;;;;;;8.55;4.25;;;;;;;16.30;100.00;98950.44;4814207;29;103126;-84
2021/07/09 04:04:44;;;;;;;3.63;3.03;;;;;;;16.39;100.00;98961.13;4826791;29;103878;-87
2021/07/09 04:07:12;;;;;;;4.63;3.35;;;;;;;16.33;100.00;98964.34;4830144;29;103783;-88
2021/07/09 04:09:40;;;;;;;3.47;3.05;;;;;;;16.37;100.00;98968.41;4811086;29;103034;-87
2021/07/09 04:12:10;;;;;;;2.95;2.75;;;;;;;16.38;100.00;98959.44;4832220;29;103120;-88
2021/07/09 04:14:38;;;;;;;3.30;3.00;;;;;;;16.35;100.00;98970.38;4828119;29;103955;-87
2021/07/09 04:17:06;;;;;;;5.93;3.67;;;;;;;16.29;100.00;98970.94;4810343;29;105101;-88
2021/07/09 04:19:34;;;;;;;4.05;3.75;;;;;;;16.26;100.00;98976.53;4824011;29;103156;-86
2021/07/09 04:22:02;;;;;;;5.75;3.25;;;;;;;16.36;100.00;98974.75;4838394;28;102884;-87
2021/07/09 04:24:30;;;;;;;4.95;3.20;;;;;;;16.30;100.00;98977.97;4844261;29;103349;-84
2021/07/09 04:26:58;;;;;;;4.63;3.38;;;;;;;16.26;100.00;98987.19;4827712;29;103288;-85
2021/07/09 04:29:30;;;;;;;4.57;3.50;;;;;;;16.15;100.00;98979.34;4827870;29;102988;-87
2021/07/09 04:31:59;;;;;;;4.13;3.58;;;;;;;16.06;100.00;98975.69;4827616;29;103301;-84
2021/07/09 04:34:27;;;;;;;5.60;3.45;;;;;;;16.11;100.00;98983.28;4825345;29;104518;-84
2021/07/09 04:36:55;;;;;;;4.15;3.13;;;;;;;16.25;100.00;98993.53;4819448;29;105404;-85
2021/07/09 04:39:24;;;;;;;5.78;3.88;;;;;;;16.17;100.00;98998.69;4827337;29;103291;-83
2021/07/09 04:41:53;;;;;;;4.00;3.70;;;;;;;16.25;100.00;98988.22;4832854;29;103232;-79
2021/07/09 04:44:21;;;;;;;5.40;3.90;;;;;;;16.12;100.00;98992.94;4824315;29;104458;-79
2021/07/09 04:46:50;;;;;;;4.90;3.33;;;;;;;16.13;100.00;98994.63;4813635;29;104263;-78
2021/07/09 04:49:18;;;;;;;3.45;3.15;;;;;;;16.07;100.00;98988.03;4819049;29;103120;-76
2021/07/09 04:51:47;;;;;;;3.53;3.20;;;;;;;16.13;100.00;98992.81;4814346;29;106036;-79
2021/07/09 04:54:16;;;;;;;4.90;3.50;;;;;;;16.11;100.00;98993.94;4814639;29;104579;-76
2021/07/09 04:56:44;;;;;;;5.63;3.50;;;;;;;16.02;100.00;99006.28;4814942;29;104300;-76
2021/07/09 04:59:12;;;;;;;4.60;3.10;;;;;;;15.95;100.00;99004.28;4813757;29;103934;-77
2021/07/09 05:01:40;;;;;;;3.77;3.00;;;;;;;16.01;100.00;99003.72;4815095;29;103457;-79
2021/07/09 05:04:09;;;;;;;3.30;3.00;;;;;;;16.01;100.00;99009.06;4822584;29;104758;-79
2021/07/09 05:06:37;;;;;;;3.73;3.20;;;;;;;16.14;100.00;99004.31;4817527;29;104260;-78
2021/07/09 05:09:07;;;;;;;4.53;3.13;;;;;;;16.04;100.00;99014.97;4810060;28;103543;-80
2021/07/09 05:11:37;;;;;;;3.60;2.97;;;;;;;16.19;100.00;99007.41;4836176;28;103569;-77
2021/07/09 05:14:06;;;;;;;4.97;3.90;;;;;;;16.01;100.00;99012.56;4832847;28;105101;-80
2021/07/09 05:16:35;;;;;;;3.53;3.17;;;;;;;16.16;100.00;99007.69;4838993;28;103865;-79
2021/07/09 05:19:04;;;;;;;3.50;3.20;;;;;;;16.27;100.00;99014.72;4809491;28;104130;-80
2021/07/09 05:21:34;;;;;;;5.13;3.60;;;;;;;16.11;100.00;99012.59;4806531;28;103941;-76
2021/07/09 05:24:05;;;;;;;4.15;3.17;;;;;;;16.22;100.00;99013.28;4843228;28;104053;-80
2021/07/09 05:26:33;;;;;;;3.57;3.20;;;;;;;16.19;100.00;99021.59;4814067;28;104120;-85
2021/07/09 05:29:05;;;;;;;4.75;3.22;;;;;;;16.23;100.00;99019.47;4817973;29;103325;-76
2021/07/09 05:31:33;;;;;;;3.60;3.30;;;;;;;16.13;100.00;99023.94;4819607;29;103101;-79
2021/07/09 05:34:02;;;;;;;4.00;2.87;;;;;;;16.23;100.00;99030.13;4817185;29;104918;-80
2021/07/09 05:36:30;;;;;;;4.30;3.13;;;;;;;16.19;100.00;99018.06;4818780;29;103660;-80
2021/07/09 05:39:00;;;;;;;4.40;3.10;;;;;;;16.20;100.00;99036.59;4809509;29;103435;-80
2021/07/09 05:41:28;;;;;;;3.20;2.90;;;;;;;16.17;100.00;99034.19;4824968;29;103708;-82
2021/07/09 05:43:56;;;;;;;4.47;2.95;;;;;;;16.22;100.00;99023.13;4803985;29;103748;-81
2021/07/09 05:46:24;;;;;;;4.37;3.63;;;;;;;16.16;100.00;99035.19;4829499;28;103472;-80
2021/07/09 05:48:52;;;;;;;3.92;3.53;;;;;;;16.16;100.00;99040.53;4829742;29;103232;-82
2021/07/09 05:51:20;;;;;;;4.60;3.70;;;;;;;16.22;100.00;99039.13;4820663;29;103522;-81
2021/07/09 05:53:48;;;;;;;4.00;3.67;;;;;;;16.24;100.00;99046.00;4817553;29;104555;-82
2021/07/09 05:56:17;;;;;;;5.20;3.75;;;;;;;16.30;100.00;99051.75;4822132;29;104714;-83
2021/07/09 05:58:45;;;;;;;3.45;3.15;;;;;;;16.28;100.00;99043.88;4809863;29;103573;-82
2021/07/09 06:01:13;;;;;;;5.57;3.77;;;;;;;16.31;100.00;99046.28;4825728;29;103025;-80
2021/07/09 06:03:42;;;;;;;4.53;3.80;;;;;;;16.33;100.00;99057.66;4823762;29;103333;-82
2021/07/09 06:06:10;;;;;;;4.23;3.87;;;;;;;16.31;100.00;99056.13;4825641;29;103191;-82
2021/07/09 06:08:38;;;;;;;6.00;3.85;;;;;;;16.23;100.00;99056.78;4825867;29;103278;-81
2021/07/09 06:11:06;;;;;;;3.30;3.00;;;;;;;16.44;100.00;99056.69;4816364;29;103282;-80
2021/07/09 06:13:35;;;;;;;4.07;3.78;;;;;;;16.52;100.00;99057.69;4829341;29;103241;-83
2021/07/09 06:16:04;;;;;;;4.28;3.70;;;;;;;16.54;100.00;99065.56;4829186;29;103837;-84
2021/07/09 06:18:33;;;;;;;5.25;3.72;;;;;;;16.41;100.00;99070.28;4828164;29;102507;-82
2021/07/09 06:21:22;;;;;;;4.25;3.85;;;;;;;16.50;100.00;99066.81;4830060;29;103087;-82
2021/07/09 06:23:50;;;;;;;5.68;3.75;;;;;;;16.55;100.00;99070.78;4810357;29;107458;-83
2021/07/09 06:26:18;;;;;;;4.13;3.10;;;;;;;16.52;100.00;99068.34;4826587;29;103796;-81
2021/07/09 06:28:48;;;;;;;4.43;4.07;;;;;;;16.54;100.00;99077.06;4829853;29;103128;-82
2021/07/09 06:31:16;;;;;;;4.80;4.20;;;;;;;16.49;100.00;99076.63;4832089;29;102697;-82
2021/07/09 06:33:45;;;;;;;4.75;4.28;;;;;;;16.41;100.00;99080.97;4832412;29;103876;-82
2021/07/09 06:36:13;;;;;;;4.60;3.40;;;;;;;16.51;100.00;99077.31;4837707;29;105274;-82
2021/07/09 06:38:46;;;;;;;4.78;4.00;;;;;;;16.46;100.00;99079.56;4831578;29;103160;-82
2021/07/09 06:41:14;;;;;;;4.25;3.78;;;;;;;16.47;100.00;99083.94;4830979;29;102817;-83
2021/07/09 06:43:42;;;;;;;4.22;3.90;;;;;;;16.54;100.00;99086.91;4844501;29;103494;-84
2021/07/09 06:46:12;;;;;;;9.15;4.53;;;;;;;16.56;100.00;99080.44;4833018;29;103176;-82
2021/07/09 06:48:40;;;;;;;4.32;3.90;;;;;;;16.50;100.00;99081.00;4820461;29;103131;-83
2021/07/09 06:51:09;;;;;;;4.93;3.38;;;;;;;16.60;100.00;99089.00;4835909;29;103259;-82
2021/07/09 06:53:37;;;;;;;7.45;4.55;;;;;;;16.59;100.00;99090.81;4816446;29;104520;-82
2021/07/09 06:56:05;;;;;;;5.05;3.70;;;;;;;16.53;100.00;99096.72;4818743;29;104910;-82
2021/07/09 06:58:34;;;;;;;5.47;4.63;;;;;;;16.66;100.00;99096.47;4824798;29;103464;-82
2021/07/09 07:01:02;;;;;;;5.05;4.55;;;;;;;16.65;100.00;99095.63;4843714;29;102964;-82
2021/07/09 07:03:31;;;;;;;7.25;5.50;;;;;;;16.73;100.00;99093.09;4817483;29;105100;-82
2021/07/09 07:05:59;;;;;;;5.47;4.82;;;;;;;16.88;100.00;99100.66;4833533;29;103276;-82
2021/07/09 07:08:28;;;;;;;5.13;3.83;;;;;;;16.98;100.00;99096.19;4832890;29;103129;-80
2021/07/09 07:10:57;;;;;;;8.35;5.45;;;;;;;17.00;100.00;99096.88;4831676;29;103312;-82
2021/07/09 07:13:26;;;;;;;5.35;4.85;;;;;;;17.02;100.00;99108.25;4829611;29;104643;-82
2021/07/09 07:15:55;;;;;;;5.97;4.32;;;;;;;17.03;100.00;99096.59;4834629;29;105268;-83
2021/07/09 07:18:23;;;;;;;4.00;3.70;;;;;;;17.24;100.00;99103.44;4841604;29;103098;-83
2021/07/09 07:20:53;;;;;;;4.97;4.45;;;;;;;17.19;100.00;99116.41;4831323;29;102936;-83
2021/07/09 07:23:22;;;;;;;5.35;4.28;;;;;;;17.32;100.00;99113.41;4830928;29;106190;-83
2021/07/09 07:25:51;;;;;;;4.65;4.25;;;;;;;17.46;100.00;99115.63;4826177;29;103675;-82
2021/07/09 07:28:20;;;;;;;4.53;4.05;;;;;;;17.39;100.00;99109.19;4832764;29;103016;-83
2021/07/09 07:31:07;;;;;;;7.05;5.20;;;;;;;17.50;100.00;99114.38;4816503;29;103209;-82
2021/07/09 07:33:36;;;;;;;3.80;3.50;;;;;;;17.75;100.00;99119.09;4831309;29;105145;-88
2021/07/09 07:36:15;;;;;;;5.60;4.28;;;;;;;17.77;100.00;99122.47;4823453;29;103680;-87
2021/07/09 07:38:44;;;;;;;4.60;3.78;;;;;;;17.79;100.00;99125.00;4831547;29;102880;-86
2021/07/09 07:41:12;;;;;;;4.88;4.40;;;;;;;17.99;100.00;99120.44;4827156;29;103625;-85
2021/07/09 07:43:42;;;;;;;5.07;4.40;;;;;;;17.79;99.49;99120.50;4821062;29;105515;-87
2021/07/09 07:46:10;;;;;;;7.90;5.50;;;;;;;17.79;100.00;99122.34;4855029;28;104234;-87
2021/07/09 07:48:38;;;;;;;5.20;4.18;;;;;;;17.88;100.00;99119.63;4866902;28;103584;-88
2021/07/09 07:51:07;;;;;;;6.70;3.88;;;;;;;17.85;100.00;99119.91;4865779;28;103160;-88
2021/07/09 07:53:36;;;;;;;5.47;4.43;;;;;;;17.88;100.00;99124.97;4867187;28;104207;-86
2021/07/09 07:56:06;;;;;;;6.28;4.90;;;;;;;17.98;99.95;99126.75;4864838;28;104616;-87
2021/07/09 07:58:35;;;;;;;4.28;3.88;;;;;;;17.92;100.00;99115.66;4860626;28;103386;-86
2021/07/09 08:01:03;;;;;;;4.82;4.43;;;;;;;18.10;99.12;99125.59;4864959;28;102898;-87
2021/07/09 08:03:31;;;;;;;4.47;4.07;;;;;;;18.11;99.68;99127.25;4865827;28;103830;-86
2021/07/09 08:05:59;;;;;;;4.40;4.00;;;;;;;18.19;97.67;99127.38;4866119;28;104968;-87
2021/07/09 08:08:27;;;;;;;5.22;4.72;;;;;;;18.08;97.01;99125.72;4864615;28;103118;-87
2021/07/09 08:10:57;;;;;;;5.72;5.03;;;;;;;18.17;95.95;99132.00;4867390;28;103855;-87
2021/07/09 08:13:25;;;;;;;4.50;4.10;;;;;;;18.24;96.06;99131.28;4866492;28;104100;-90
2021/07/09 08:15:53;;;;;;;4.28;3.88;;;;;;;18.44;95.76;99126.69;4868602;28;103747;-89
2021/07/09 08:18:22;;;;;;;4.47;4.03;;;;;;;18.45;95.06;99133.69;4855843;28;103159;-85
2021/07/09 08:20:50;;;;;;;5.28;3.80;;;;;;;18.57;93.45;99129.84;4867397;28;103283;-86
2021/07/09 08:23:18;;;;;;;5.93;4.50;;;;;;;18.36;92.90;99124.72;4865175;28;104649;-86
2021/07/09 08:25:48;;;;;;;4.80;4.22;;;;;;;18.56;93.52;99119.28;4850472;28;106284;-87
2021/07/09 08:28:19;;;;;;;5.93;4.85;;;;;;;18.44;92.10;99124.00;4865145;28;103280;-87
2021/07/09 08:30:47;;;;;;;4.32;3.92;;;;;;;18.68;92.44;99124.28;4881037;28;102643;-85
2021/07/09 08:33:15;;;;;;;5.18;4.00;;;;;;;18.98;91.59;99117.69;4866731;28;103090;-83
2021/07/09 08:35:43;;;;;;;3.65;3.35;;;;;;;19.05;89.72;99127.66;4882196;28;103691;-86
2021/07/09 08:38:11;;;;;;;4.18;3.80;;;;;;;19.13;89.56;99124.22;4867780;28;103351;-87
2021/07/09 08:40:40;;;;;;;4.57;4.18;;;;;;;19.18;86.85;99131.75;4865584;28;103254;-86
2021/07/09 08:43:32;;;;;;;5.40;5.00;;;;;;;19.29;87.23;99127.00;4862479;28;103633;-86
2021/07/09 08:46:01;;;;;;;4.40;4.00;;;;;;;19.29;88.12;99128.84;4866952;28;105020;-86
2021/07/09 08:48:30;;;;;;;5.07;4.57;;;;;;;19.33;86.70;99131.06;4867564;28;102618;-84
2021/07/09 08:51:00;;;;;;;7.35;4.82;;;;;;;19.45;85.57;99129.84;4865218;28;103053;-87
2021/07/09 08:53:28;;;;;;;5.75;4.97;;;;;;;19.55;87.07;99133.28;4866816;28;105182;-86
2021/07/09 08:55:57;;;;;;;5.72;5.22;;;;;;;19.73;82.81;99127.88;4862835;28;105388;-88
2021/07/09 08:58:25;;;;;;;5.70;4.47;;;;;;;19.59;83.71;99133.81;4866593;28;103546;-87
2021/07/09 09:00:55;;;;;;;5.53;4.78;;;;;;;19.64;85.23;99139.53;4868428;28;103513;-85
2021/07/09 09:03:25;;;;;;;6.78;3.47;;;;;;;19.99;84.52;99134.03;4848388;28;103970;-87
2021/07/09 09:05:59;;;;;;;4.63;3.95;;;;;;;20.11;85.47;99138.13;4863937;28;104214;-85
2021/07/09 09:08:29;;;;;;;8.23;5.57;;;;;;;20.00;83.98;99150.97;4870163;28;103001;-87
2021/07/09 09:10:58;;;;;;;5.63;4.95;;;;;;;20.19;83.17;99140.84;4866622;28;103458;-85
2021/07/09 09:13:29;;;;;;;5.55;4.93;;;;;;;20.21;81.93;99152.25;4864928;28;105259;-85
2021/07/09 09:16:05;;;;;;;4.07;3.70;;;;;;;20.64;83.36;99145.06;4867949;28;104729;-83
2021/07/09 09:18:37;;;;;;;5.28;4.78;;;;;;;20.61;81.44;99140.00;4868856;28;103066;-88
2021/07/09 09:21:08;;;;;;;4.72;4.07;;;;;;;20.91;81.32;99146.63;4869379;28;103019;-87
2021/07/09 09:23:38;;;;;;;4.47;4.03;;;;;;;20.82;79.55;99156.53;4842802;28;105072;-86
2021/07/09 09:26:07;;;;;;;5.85;5.25;;;;;;;20.83;79.56;99155.50;4878715;28;103289;-88
2021/07/09 09:28:37;;;;;;;5.72;5.20;;;;;;;20.30;81.85;99157.69;4868677;28;102894;-87
2021/07/09 09:31:07;;;;;;;5.35;4.82;;;;;;;20.10;82.12;99155.22;4868366;28;103105;-83
2021/07/09 09:33:37;;;;;;;3.97;3.60;;;;;;;20.79;81.33;99157.69;4874250;28;106743;-85
2021/07/09 09:36:08;;;;;;;5.20;4.70;;;;;;;21.05;81.71;99144.13;4873821;28;104148;-87
2021/07/09 09:38:37;;;;;;;7.07;5.45;;;;;;;20.76;79.56;99143.75;4868296;28;103463;-86
2021/07/09 09:41:06;;;;;;;4.50;4.10;;;;;;;21.32;79.46;99151.91;4867596;28;103022;-89
2021/07/09 09:43:35;;;;;;;4.38;4.03;;;;;;;21.32;78.15;99148.38;4865836;28;103831;-88
2021/07/09 09:46:08;;;;;;;5.25;4.63;;;;;;;20.76;79.84;99141.06;4850528;28;105179;-86
2021/07/09 09:48:42;;;;;;;4.55;4.10;;;;;;;21.36;79.26;99142.50;4849653;28;103145;-87
2021/07/09 09:51:33;;;;;;;4.72;4.25;;;;;;;20.68;77.85;99141.06;4863805;28;102905;-86
2021/07/09 09:54:03;;;;;;;5.82;4.05;;;;;;;20.75;79.06;99144.75;4879742;28;104628;-83
2021/07/09 09:56:41;;;;;;;4.32;3.75;;;;;;;21.17;79.09;99142.81;4857173;28;102922;-88
2021/07/09 09:59:28;;;;;;;4.65;3.17;;;;;;;21.60;76.89;99148.88;4882853;28;104068;-89
2021/07/09 10:01:59;;;;;;;9.68;5.00;;;;;;;21.26;78.28;99144.50;4868472;28;103021;-87
2021/07/09 10:04:31;;;;;;;4.95;4.45;;;;;;;21.15;78.13;99147.53;4868501;28;105612;-88
2021/07/09 10:07:00;;;;;;;4.32;3.92;;;;;;;21.26;76.55;99141.84;4868290;28;103903;-87
2021/07/09 10:09:30;;;;;;;5.53;4.43;;;;;;;21.24;75.54;99148.38;4868512;28;102683;-87
2021/07/09 10:12:03;;;;;;;4.40;4.00;;;;;;;21.32;77.08;99143.84;4886605;28;103294;-87
2021/07/09 10:14:33;;;;;;;7.57;4.03;;;;;;;21.32;75.15;99143.84;4870194;28;103864;-88
2021/07/09 10:17:05;;;;;;;5.30;4.47;;;;;;;21.64;74.61;99147.53;4864722;28;104561;-85
2021/07/09 10:19:38;;;;;;;3.75;3.40;;;;;;;22.30;74.06;99141.81;4873133;28;103477;-88
2021/07/09 10:22:27;;;;;;;4.95;4.47;;;;;;;23.21;69.41;99136.59;4865443;28;102886;-86
2021/07/09 10:24:56;;;;;;;4.13;3.80;;;;;;;22.83;69.36;99141.06;4876622;28;104262;-84
2021/07/09 10:27:27;;;;;;;4.30;3.90;;;;;;;22.61;70.45;99149.91;4852782;28;105878;-88
2021/07/09 10:29:55;;;;;;;5.15;4.40;;;;;;;21.89;72.73;99149.19;4872032;28;103168;-87
2021/07/09 10:32:33;;;;;;;5.90;4.15;;;;;;;22.70;69.04;99140.81;4864102;28;103101;-82
2021/07/09 10:35:02;;;;;;;4.95;3.83;;;;;;;22.56;68.29;99142.38;4854416;28;106811;-81
2021/07/09 10:37:30;;;;;;;4.60;4.20;;;;;;;22.93;69.35;99136.31;4874851;28;103171;-81
2021/07/09 10:40:11;;;;;;;3.97;3.60;;;;;;;23.03;70.68;99136.91;4874396;28;103555;-82
2021/07/09 10:42:41;;;;;;;4.82;3.63;;;;;;;24.10;71.68;99133.94;4863337;28;103341;-81
2021/07/09 10:45:20;;;;;;;7.03;3.47;;;;;;;23.54;66.63;99144.28;4869435;28;104401;-81
2021/07/09 10:47:52;;;;;;;9.13;3.25;;;;;;;24.16;64.60;99142.13;4850466;28;103645;-81
2021/07/09 10:50:36;;;;;;;4.68;3.60;;;;;;;24.18;63.29;99140.09;4866206;28;103817;-84
2021/07/09 10:53:07;;;;;;;3.30;3.00;;;;;;;23.29;67.71;99140.06;4854722;28;103106;-80
2021/07/09 10:55:50;;;;;;;3.92;3.63;;;;;;;23.89;64.67;99139.22;4854125;28;103663;-82
2021/07/09 10:58:24;;;;;;;3.42;3.13;;;;;;;22.89;67.81;99132.28;4834749;28;107807;-84
2021/07/09 11:00:56;;;;;;;4.15;3.33;;;;;;;23.41;66.33;99137.81;4872582;28;102726;-85
2021/07/09 11:03:31;;;;;;;4.40;3.45;;;;;;;23.82;64.29;99140.97;4876373;28;103064;-82
2021/07/09 11:06:07;;;;;;;5.63;4.18;;;;;;;24.26;64.25;99122.94;4864575;28;104566;-83
2021/07/09 11:08:50;;;;;;;4.43;4.03;;;;;;;23.62;66.78;99133.41;4832393;28;104418;-82
2021/07/09 11:11:48;;;;;;;5.90;4.78;;;;;;;22.08;68.95;99126.44;4866984;28;103202;-83
2021/07/09 11:14:32;;;;;;;4.60;4.20;;;;;;;23.10;67.29;99125.22;4843383;28;102953;-77
2021/07/09 11:17:13;;;;;;;4.18;3.67;;;;;;;23.43;64.84;99135.78;4877262;28;103861;-77
2021/07/09 11:19:48;;;;;;;5.65;5.15;;;;;;;22.94;67.16;99135.28;4850904;28;106859;-82
2021/07/09 11:22:21;;;;;;;5.50;5.00;;;;;;;22.61;65.85;99133.75;4866047;28;102965;-78
2021/07/09 11:24:56;;;;;;;6.20;4.55;;;;;;;22.82;67.21;99126.75;4870036;28;103111;-80
2021/07/09 11:27:29;;;;;;;7.78;5.22;;;;;;;23.79;64.98;99119.75;4875571;28;104020;-80
2021/07/09 11:30:02;;;;;;;7.85;5.30;;;;;;;23.76;65.19;99118.25;4870410;28;103123;-80
2021/07/09 11:32:36;;;;;;;6.18;5.50;;;;;;;22.75;66.56;99116.88;4867904;28;102937;-83
2021/07/09 11:35:07;;;;;;;6.28;5.68;;;;;;;23.00;68.16;99107.63;4879759;28;103038;-81